Time;durP1;ratioP1;P1;durP2;ratioP2;P2;SDS_P1;SDS_P2;PMS_P1;PMS_P2;Temp;Humidity;BMP_temperature;BMP_pressure;BME280_temperature;BME280_humidity;BME280_pressure;Samples;Min_cycle;Max_cycle;Signal;HPM_P1;HPM_P2
2023/01/15 00:00:20;;;;;;;7.60;2.03;;;6.70;99.90;;;;;;5012071;28;20048;-85
2023/01/15 00:02:46;;;;;;;6.20;1.80;;;6.70;99.90;;;;;;5012079;28;20046;-85
2023/01/15 00:05:12;;;;;;;11.87;2.33;;;6.60;99.90;;;;;;5011659;28;20144;-87
2023/01/15 00:07:38;;;;;;;9.40;2.20;;;6.70;99.90;;;;;;5005569;28;20069;-85
2023/01/15 00:10:04;;;;;;;9.90;2.30;;;6.70;99.90;;;;;;5004097;28;20473;-86
2023/01/15 00:12:30;;;;;;;11.20;2.13;;;6.70;99.90;;;;;;5011708;28;20115;-85
2023/01/15 00:14:56;;;;;;;11.87;2.70;;;6.70;99.90;;;;;;4995621;28;20487;-86
2023/01/15 00:17:22;;;;;;;7.97;2.03;;;6.70;99.90;;;;;;5012103;28;20045;-87
2023/01/15 00:19:48;;;;;;;8.60;2.00;;;6.60;99.90;;;;;;4995829;28;20482;-85
2023/01/15 00:22:14;;;;;;;8.07;2.00;;;6.60;99.90;;;;;;5011259;28;20041;-86
2023/01/15 00:27:39;;;;;;;9.03;1.97;;;6.70;99.90;;;;;;5002856;28;20046;-86
2023/01/15 00:30:06;;;;;;;5.90;2.00;;;6.60;99.90;;;;;;4992106;28;20904;-86
2023/01/15 00:32:32;;;;;;;8.53;2.10;;;6.60;99.90;;;;;;4994690;28;20041;-85
2023/01/15 00:34:58;;;;;;;6.10;1.80;;;6.60;99.90;;;;;;5011266;28;20046;-86
2023/01/15 00:37:24;;;;;;;5.37;1.70;;;6.60;99.90;;;;;;4978686;28;20050;-86
2023/01/15 00:39:49;;;;;;;10.77;2.10;;;6.60;99.90;;;;;;4978835;28;20049;-86
2023/01/15 00:42:16;;;;;;;7.10;2.30;;;6.60;99.90;;;;;;5011582;28;20054;-86
2023/01/15 00:44:42;;;;;;;5.30;1.77;;;6.60;99.90;;;;;;4986288;28;20089;-85
2023/01/15 00:47:13;;;;;;;11.70;2.07;;;6.60;99.90;;;;;;4985357;28;20650;-86
2023/01/15 00:49:42;;;;;;;6.43;2.13;;;6.60;99.90;;;;;;4991728;28;20042;-85
2023/01/15 00:52:09;;;;;;;7.60;2.17;;;6.60;99.90;;;;;;5000601;28;20034;-86
2023/01/15 00:54:35;;;;;;;9.83;2.50;;;6.60;99.90;;;;;;5011469;28;20033;-85
2023/01/15 00:57:00;;;;;;;8.07;1.90;;;6.60;99.90;;;;;;4994599;28;20069;-85
2023/01/15 00:59:26;;;;;;;8.03;2.37;;;6.60;99.90;;;;;;5011304;28;20096;-86
2023/01/15 01:01:52;;;;;;;9.43;2.30;;;6.60;99.90;;;;;;4994577;28;20557;-85
2023/01/15 01:04:17;;;;;;;12.03;2.10;;;6.60;99.90;;;;;;5010755;28;20096;-84
2023/01/15 01:06:43;;;;;;;8.13;2.53;;;6.60;99.90;;;;;;4989655;28;20116;-85
2023/01/15 01:09:12;;;;;;;7.70;2.07;;;6.60;99.90;;;;;;4994382;28;20481;-86
2023/01/15 01:11:38;;;;;;;13.50;2.40;;;6.60;99.90;;;;;;5000071;28;20045;-86
2023/01/15 01:14:04;;;;;;;9.33;2.07;;;6.60;99.90;;;;;;5012766;28;20057;-84
2023/01/15 01:16:36;;;;;;;9.80;2.60;;;6.60;99.90;;;;;;5026833;28;20489;-83
2023/01/15 01:19:12;;;;;;;11.25;2.13;;;6.60;99.90;;;;;;5045200;28;20546;-85
2023/01/15 01:21:39;;;;;;;7.90;1.90;;;6.60;99.90;;;;;;5033496;28;20040;-86
2023/01/15 01:24:06;;;;;;;13.77;2.20;;;6.60;99.90;;;;;;5017423;28;20060;-87
2023/01/15 01:26:33;;;;;;;7.93;2.37;;;6.60;99.90;;;;;;5022454;28;20033;-87
2023/01/15 01:28:59;;;;;;;9.47;2.17;;;6.60;99.90;;;;;;5008158;28;20064;-86
2023/01/15 01:31:25;;;;;;;9.63;2.30;;;6.60;99.90;;;;;;5026799;28;20567;-85
2023/01/15 01:33:53;;;;;;;5.03;2.07;;;6.60;99.90;;;;;;5022510;28;20086;-86
2023/01/15 01:36:20;;;;;;;13.57;2.77;;;6.60;99.90;;;;;;5013518;28;20047;-86
2023/01/15 01:38:49;;;;;;;9.40;2.40;;;6.60;99.90;;;;;;5033621;28;20536;-86
2023/01/15 01:41:16;;;;;;;8.57;2.10;;;6.60;99.90;;;;;;5021311;28;20041;-86
2023/01/15 01:44:00;;;;;;;10.97;2.57;;;6.60;99.90;;;;;;5010407;28;20124;-86
2023/01/15 01:46:28;;;;;;;15.83;3.37;;;6.60;99.90;;;;;;5010803;28;20076;-86
2023/01/15 01:49:05;;;;;;;11.03;2.20;;;6.60;99.90;;;;;;5001458;28;20374;-86
2023/01/15 01:51:38;;;;;;;10.00;1.80;;;6.60;99.90;;;;;;5040422;28;20041;-86
2023/01/15 01:54:04;;;;;;;12.67;2.63;;;6.60;99.90;;;;;;5035161;28;20580;-86
2023/01/15 01:56:34;;;;;;;10.03;2.37;;;6.60;99.90;;;;;;5017549;28;20068;-85
2023/01/15 01:59:01;;;;;;;11.03;2.83;;;6.60;99.90;;;;;;5037408;28;20117;-87
2023/01/15 02:01:27;;;;;;;6.37;2.03;;;6.60;99.90;;;;;;5003262;28;20080;-87
2023/01/15 02:03:53;;;;;;;13.07;2.30;;;6.50;99.90;;;;;;5037889;28;20049;-86
2023/01/15 02:06:19;;;;;;;14.27;2.93;;;6.60;99.90;;;;;;5018984;28;20056;-86
2023/01/15 02:08:45;;;;;;;14.27;3.03;;;6.60;99.90;;;;;;5037273;28;20432;-87
2023/01/15 02:11:15;;;;;;;10.23;2.67;;;6.60;99.90;;;;;;5025273;28;20044;-85
2023/01/15 02:13:53;;;;;;;8.27;2.00;;;6.60;99.90;;;;;;5033510;28;20091;-88
2023/01/15 02:17:03;;;;;;;10.30;2.03;;;6.60;99.90;;;;;;5047074;28;20044;-87
2023/01/15 02:19:41;;;;;;;7.60;2.27;;;6.50;99.90;;;;;;5017129;28;20577;-86
2023/01/15 02:22:27;;;;;;;7.27;2.30;;;6.50;99.90;;;;;;5001244;28;20075;-86
2023/01/15 02:25:21;;;;;;;10.33;2.67;;;6.50;99.90;;;;;;5000733;28;20052;-86
2023/01/15 02:27:52;;;;;;;15.10;3.00;;;6.50;99.90;;;;;;5017151;28;20129;-86
2023/01/15 02:30:31;;;;;;;10.40;2.63;;;6.50;99.90;;;;;;5032950;28;20051;-87
2023/01/15 02:33:18;;;;;;;13.83;2.30;;;6.50;99.90;;;;;;5040057;28;20049;-87
2023/01/15 02:35:53;;;;;;;12.43;3.07;;;6.50;99.90;;;;;;5020951;28;20048;-87
2023/01/15 02:38:23;;;;;;;13.10;2.10;;;6.50;99.90;;;;;;5035772;28;20044;-86
2023/01/15 02:40:52;;;;;;;9.27;2.20;;;6.50;99.90;;;;;;5045007;28;20048;-86
2023/01/15 02:43:20;;;;;;;17.70;3.10;;;6.50;99.90;;;;;;5029489;28;20045;-87
2023/01/15 02:45:49;;;;;;;13.30;2.87;;;6.50;99.90;;;;;;5036516;28;20041;-86
2023/01/15 02:48:19;;;;;;;13.13;2.27;;;6.60;99.90;;;;;;5024847;28;20373;-86
2023/01/15 02:50:54;;;;;;;13.27;2.77;;;6.50;99.90;;;;;;5045292;28;20384;-86
2023/01/15 02:53:25;;;;;;;10.63;2.60;;;6.50;99.90;;;;;;5036343;28;20045;-87
2023/01/15 02:55:54;;;;;;;12.45;2.50;;;6.50;99.90;;;;;;5020154;28;20542;-87
2023/01/15 02:58:26;;;;;;;13.63;2.90;;;6.50;99.90;;;;;;5019724;28;20045;-85
2023/01/15 03:00:55;;;;;;;7.90;2.27;;;6.50;99.90;;;;;;5035892;28;20492;-86
2023/01/15 03:03:31;;;;;;;9.93;2.30;;;6.50;99.90;;;;;;5044100;28;20408;-88
2023/01/15 03:06:04;;;;;;;10.47;1.80;;;6.50;99.90;;;;;;5024675;28;20033;-86
2023/01/15 03:08:30;;;;;;;13.03;2.90;;;6.50;99.90;;;;;;5021807;28;20037;-87
2023/01/15 03:11:10;;;;;;;12.03;3.00;;;6.50;99.90;;;;;;4983976;28;20042;-86
2023/01/15 03:13:42;;;;;;;12.47;2.57;;;6.50;99.90;;;;;;4999910;28;21261;-87
2023/01/15 03:16:33;;;;;;;12.60;2.38;;;6.50;99.90;;;;;;5032665;28;20037;-86
2023/01/15 03:19:21;;;;;;;13.38;2.42;;;6.50;99.90;;;;;;5040177;28;20037;-86
2023/01/15 03:21:47;;;;;;;11.17;3.10;;;6.50;99.90;;;;;;5052586;28;20127;-86
2023/01/15 03:24:20;;;;;;;12.43;2.40;;;6.50;99.90;;;;;;5052411;28;20128;-85
2023/01/15 03:26:46;;;;;;;11.60;2.70;;;6.50;99.90;;;;;;5046719;28;20095;-86
2023/01/15 03:29:13;;;;;;;11.70;2.53;;;6.50;99.90;;;;;;5015262;28;20041;-87
2023/01/15 03:31:39;;;;;;;9.93;2.53;;;6.50;99.90;;;;;;5016197;28;20041;-85
2023/01/15 03:34:06;;;;;;;9.97;2.73;;;6.50;99.90;;;;;;5019274;28;20810;-84
2023/01/15 03:36:32;;;;;;;8.33;2.43;;;6.40;99.90;;;;;;5039002;28;20045;-86
2023/01/15 03:38:58;;;;;;;11.40;2.83;;;6.40;99.90;;;;;;5019252;28;20044;-85
2023/01/15 03:41:58;;;;;;;12.03;2.70;;;6.40;99.90;;;;;;5018996;28;20063;-86
2023/01/15 03:44:31;;;;;;;12.87;2.30;;;6.40;99.90;;;;;;5031417;28;20048;-87
2023/01/15 03:47:22;;;;;;;11.20;2.60;;;6.40;99.90;;;;;;5018240;28;20589;-87
2023/01/15 03:50:00;;;;;;;11.47;2.40;;;6.40;99.90;;;;;;5034966;28;20516;-84
2023/01/15 03:52:49;;;;;;;9.80;2.73;;;6.40;99.90;;;;;;5015721;28;20400;-87
2023/01/15 03:55:20;;;;;;;12.73;2.57;;;6.40;99.90;;;;;;5031962;28;20052;-85
2023/01/15 03:57:59;;;;;;;7.78;2.70;;;6.40;99.90;;;;;;5035118;28;20755;-87
2023/01/15 04:00:38;;;;;;;15.50;3.03;;;6.40;99.90;;;;;;5026456;28;20071;-87
2023/01/15 04:03:07;;;;;;;18.27;3.43;;;6.40;99.90;;;;;;5015415;28;20061;-86
2023/01/15 04:05:35;;;;;;;11.43;2.53;;;6.30;99.90;;;;;;5025138;28;20040;-87
2023/01/15 04:08:03;;;;;;;11.90;2.83;;;6.30;99.90;;;;;;5018556;28;20036;-85
2023/01/15 04:10:28;;;;;;;11.87;2.37;;;6.30;99.90;;;;;;5042494;28;20365;-86
2023/01/15 04:12:54;;;;;;;11.07;2.40;;;6.30;99.90;;;;;;5023744;28;20064;-86
2023/01/15 04:15:20;;;;;;;10.53;2.67;;;6.30;99.90;;;;;;5018252;28;20087;-86
2023/01/15 04:17:46;;;;;;;12.50;2.97;;;6.30;99.90;;;;;;5017932;28;20191;-87
2023/01/15 04:20:12;;;;;;;10.77;2.80;;;6.20;99.90;;;;;;5018614;28;20044;-87
2023/01/15 04:22:38;;;;;;;13.33;2.90;;;6.20;99.90;;;;;;5012163;28;20052;-85
2023/01/15 04:25:05;;;;;;;12.93;3.13;;;6.20;99.90;;;;;;5051271;28;20045;-85
2023/01/15 04:27:31;;;;;;;11.70;3.07;;;6.20;99.90;;;;;;5029154;28;20037;-86
2023/01/15 04:29:57;;;;;;;13.70;2.30;;;6.30;99.90;;;;;;5024117;28;20143;-84
2023/01/15 04:32:23;;;;;;;13.00;3.17;;;6.30;99.90;;;;;;5037406;28;20497;-86
2023/01/15 04:34:49;;;;;;;15.23;3.00;;;6.30;99.90;;;;;;5051120;28;20052;-86
2023/01/15 04:37:16;;;;;;;12.43;2.70;;;6.30;99.90;;;;;;5049063;28;20475;-87
2023/01/15 04:39:42;;;;;;;17.93;3.17;;;6.30;99.90;;;;;;5034677;28;20033;-86
2023/01/15 04:44:56;;;;;;;10.90;2.50;;;6.30;99.90;;;;;;5034249;28;20057;-85
2023/01/15 04:47:22;;;;;;;10.83;2.83;;;6.30;99.90;;;;;;5018352;28;20041;-87
2023/01/15 04:49:48;;;;;;;11.77;2.60;;;6.30;99.90;;;;;;5017995;28;20052;-86
2023/01/15 04:52:14;;;;;;;9.33;2.90;;;6.30;99.90;;;;;;5022294;28;20099;-88
2023/01/15 04:54:40;;;;;;;11.17;2.27;;;6.30;99.90;;;;;;5042066;28;20049;-87
2023/01/15 04:57:08;;;;;;;10.23;2.73;;;6.20;99.90;;;;;;5030820;28;20041;-87
2023/01/15 04:59:34;;;;;;;15.40;2.93;;;6.30;99.90;;;;;;5001871;28;20504;-86
2023/01/15 05:01:59;;;;;;;14.13;3.07;;;6.30;99.90;;;;;;5025423;28;20036;-86
2023/01/15 05:04:25;;;;;;;11.47;2.30;;;6.20;99.90;;;;;;5020350;28;20496;-88
2023/01/15 05:06:52;;;;;;;8.50;2.30;;;6.20;99.90;;;;;;5017552;28;20037;-85
2023/01/15 05:09:18;;;;;;;13.77;3.20;;;6.20;99.90;;;;;;5032744;28;20037;-87
2023/01/15 05:11:43;;;;;;;11.27;3.33;;;6.20;99.90;;;;;;5017271;28;20515;-86
2023/01/15 05:14:09;;;;;;;11.30;2.53;;;6.20;99.90;;;;;;5033620;28;20111;-86
2023/01/15 05:16:37;;;;;;;13.83;2.90;;;6.20;99.90;;;;;;5017740;28;20500;-86
2023/01/15 05:19:06;;;;;;;11.97;2.57;;;6.20;99.90;;;;;;5033826;28;20045;-84
2023/01/15 05:21:34;;;;;;;10.03;2.57;;;6.20;99.90;;;;;;5033742;28;20055;-85
2023/01/15 05:24:01;;;;;;;8.77;2.10;;;6.20;99.90;;;;;;5018134;28;20083;-87
2023/01/15 05:26:29;;;;;;;7.47;2.23;;;6.20;99.90;;;;;;5017190;28;20045;-85
2023/01/15 05:28:57;;;;;;;10.60;2.60;;;6.20;99.90;;;;;;5021436;28;20033;-88
2023/01/15 05:31:24;;;;;;;13.27;2.60;;;6.10;99.90;;;;;;5032918;28;20481;-86
2023/01/15 05:33:50;;;;;;;14.20;3.00;;;6.10;99.90;;;;;;5018402;28;20049;-85
2023/01/15 05:36:22;;;;;;;8.97;2.40;;;6.10;99.90;;;;;;5031504;28;20683;-86
2023/01/15 05:38:48;;;;;;;;;;;6.10;99.90;;;;;;5038241;28;20041;-87
2023/01/15 05:44:04;;;;;;;7.73;2.50;;;5.90;99.90;;;;;;5042138;28;20045;-85
2023/01/15 05:46:31;;;;;;;12.23;2.43;;;5.90;99.90;;;;;;5047088;28;20257;-85
2023/01/15 05:49:02;;;;;;;7.80;2.20;;;5.90;99.90;;;;;;5051029;28;20041;-85
2023/01/15 05:51:29;;;;;;;11.13;2.55;;;5.90;99.90;;;;;;5046286;28;20052;-84
2023/01/15 05:53:58;;;;;;;19.93;3.13;;;5.90;99.90;;;;;;5037743;28;20045;-87
2023/01/15 05:56:25;;;;;;;13.13;2.57;;;5.90;99.90;;;;;;5037615;28;20045;-85
2023/01/15 05:58:52;;;;;;;11.50;2.50;;;5.90;99.90;;;;;;5021169;28;20041;-87
2023/01/15 06:01:18;;;;;;;10.33;2.53;;;5.80;99.90;;;;;;5029616;28;20128;-86
2023/01/15 06:03:46;;;;;;;11.90;2.53;;;5.80;99.90;;;;;;5037441;28;20049;-86
2023/01/15 06:06:16;;;;;;;8.97;2.60;;;5.80;99.90;;;;;;5053926;28;20045;-84
2023/01/15 06:08:43;;;;;;;9.50;2.27;;;5.80;99.90;;;;;;5037451;28;20047;-87
2023/01/15 06:11:10;;;;;;;9.27;2.37;;;5.70;99.90;;;;;;5037421;28;20041;-85
2023/01/15 06:13:36;;;;;;;11.47;2.53;;;5.70;99.90;;;;;;5054794;28;20139;-87
2023/01/15 06:16:02;;;;;;;9.07;2.57;;;5.70;99.90;;;;;;5037032;28;20562;-87
2023/01/15 06:18:28;;;;;;;11.57;2.37;;;5.70;99.90;;;;;;5020006;28;20040;-84
2023/01/15 06:20:53;;;;;;;14.97;2.50;;;5.70;99.90;;;;;;5019933;28;20102;-85
2023/01/15 06:23:19;;;;;;;9.63;2.67;;;5.70;99.90;;;;;;5040696;28;20041;-86
2023/01/15 06:25:45;;;;;;;10.57;2.47;;;5.70;99.90;;;;;;5019827;28;20048;-86
2023/01/15 06:28:11;;;;;;;9.83;2.30;;;5.70;99.90;;;;;;5041186;28;20053;-86
2023/01/15 06:30:38;;;;;;;7.27;2.37;;;5.70;99.90;;;;;;5033390;28;20041;-86
2023/01/15 06:33:06;;;;;;;11.23;2.70;;;5.60;99.90;;;;;;5049419;28;20463;-86
2023/01/15 06:35:32;;;;;;;8.37;2.13;;;5.60;99.90;;;;;;5020345;28;20091;-86
2023/01/15 06:37:58;;;;;;;9.17;2.07;;;5.60;99.90;;;;;;5037282;28;20393;-87
2023/01/15 06:40:25;;;;;;;11.17;2.27;;;5.60;99.90;;;;;;5036728;28;20487;-90
2023/01/15 06:48:23;;;;;;;7.30;2.00;;;5.60;99.90;;;;;;5028978;28;20033;-88
2023/01/15 06:50:49;;;;;;;8.60;2.07;;;5.60;99.90;;;;;;5036582;28;20068;-85
2023/01/15 06:53:15;;;;;;;9.87;2.83;;;5.50;99.90;;;;;;5003842;28;20071;-88
2023/01/15 06:55:41;;;;;;;8.07;2.17;;;5.50;99.90;;;;;;5020017;28;20095;-86
2023/01/15 06:58:07;;;;;;;9.63;2.20;;;5.40;99.90;;;;;;5018977;28;20484;-86
2023/01/15 07:00:33;;;;;;;10.73;2.33;;;5.50;99.90;;;;;;5028226;28;20045;-88
2023/01/15 07:02:59;;;;;;;11.27;2.33;;;5.40;99.90;;;;;;5038553;28;20048;-88
2023/01/15 07:05:25;;;;;;;11.47;2.00;;;5.40;99.90;;;;;;5036250;28;20489;-86
2023/01/15 07:07:51;;;;;;;13.70;2.90;;;5.40;99.90;;;;;;5035181;28;20076;-85
2023/01/15 07:10:17;;;;;;;10.03;2.30;;;5.40;99.90;;;;;;5036395;28;20048;-88
2023/01/15 07:12:43;;;;;;;13.77;2.63;;;5.30;99.90;;;;;;5039456;28;20087;-85
2023/01/15 07:15:09;;;;;;;11.37;3.10;;;5.30;99.90;;;;;;5018714;28;20053;-88
2023/01/15 07:17:35;;;;;;;13.03;2.83;;;5.30;99.90;;;;;;5000624;28;20049;-88
2023/01/15 07:20:01;;;;;;;11.73;2.73;;;5.30;99.90;;;;;;5000534;28;20273;-87
2023/01/15 07:22:26;;;;;;;6.93;2.10;;;5.30;99.90;;;;;;5009670;28;20056;-86
2023/01/15 07:24:52;;;;;;;9.93;2.20;;;5.30;99.90;;;;;;5007798;28;20039;-87
2023/01/15 07:27:18;;;;;;;11.63;2.47;;;5.20;99.90;;;;;;5023856;28;20041;-88
2023/01/15 07:29:43;;;;;;;4.63;1.83;;;5.20;99.90;;;;;;5035677;28;20499;-86
2023/01/15 07:32:10;;;;;;;12.13;2.57;;;5.30;99.90;;;;;;5023956;28;20035;-86
2023/01/15 07:34:36;;;;;;;11.07;2.40;;;5.20;99.90;;;;;;5010628;28;20131;-87
2023/01/15 07:37:01;;;;;;;8.57;2.30;;;5.30;99.90;;;;;;5035981;28;20795;-88
2023/01/15 07:39:28;;;;;;;9.63;2.17;;;5.30;99.90;;;;;;5019695;28;20045;-86
2023/01/15 07:50:13;;;;;;;7.73;1.93;;;5.30;99.90;;;;;;5043848;28;20102;-86
2023/01/15 07:52:39;;;;;;;13.27;2.30;;;5.30;99.90;;;;;;5036158;28;20037;-86
2023/01/15 07:55:07;;;;;;;11.43;1.90;;;5.30;99.90;;;;;;5025035;28;20505;-87
2023/01/15 07:57:33;;;;;;;10.37;2.13;;;5.30;99.90;;;;;;5033468;28;20045;-88
2023/01/15 07:59:59;;;;;;;8.00;2.03;;;5.30;99.90;;;;;;5035954;28;20098;-85
2023/01/15 08:02:26;;;;;;;8.13;1.80;;;5.30;99.90;;;;;;5019693;28;20459;-87
2023/01/15 08:04:52;;;;;;;7.97;2.00;;;5.30;99.90;;;;;;5019343;28;20037;-85
2023/01/15 08:07:18;;;;;;;8.27;2.00;;;5.30;99.90;;;;;;5019328;28;20508;-86
2023/01/15 08:09:43;;;;;;;5.93;1.87;;;5.20;99.90;;;;;;5019418;28;20406;-85
2023/01/15 08:15:13;;;;;;;6.33;2.30;;;5.30;99.90;;;;;;5022930;28;20114;-87
2023/01/15 08:17:47;;;;;;;7.67;2.37;;;5.30;99.90;;;;;;5019554;28;20072;-86
2023/01/15 08:20:15;;;;;;;10.63;2.07;;;5.30;99.90;;;;;;4999735;28;20128;-87
2023/01/15 08:22:43;;;;;;;13.07;2.10;;;5.30;99.90;;;;;;5008456;28;20037;-87
2023/01/15 08:25:10;;;;;;;8.50;2.13;;;5.40;99.90;;;;;;5019509;28;20392;-87
2023/01/15 08:27:37;;;;;;;8.93;2.13;;;5.40;99.90;;;;;;5019531;28;20511;-89
2023/01/15 08:30:10;;;;;;;10.67;1.97;;;5.40;99.90;;;;;;5014485;28;20043;-88
2023/01/15 08:32:39;;;;;;;5.67;1.83;;;5.40;99.90;;;;;;5036230;28;20124;-87
2023/01/15 08:35:05;;;;;;;7.33;1.63;;;5.50;99.90;;;;;;5033833;28;20033;-89
2023/01/15 08:37:31;;;;;;;11.23;2.13;;;5.50;99.90;;;;;;5034491;28;20043;-88
2023/01/15 08:39:57;;;;;;;7.20;1.90;;;5.50;99.90;;;;;;5028566;28;20115;-86
2023/01/15 08:42:23;;;;;;;7.47;1.80;;;5.60;99.90;;;;;;5035874;28;20063;-87
2023/01/15 08:44:49;;;;;;;6.67;1.50;;;5.60;99.90;;;;;;5038253;28;20080;-86
2023/01/15 08:47:16;;;;;;;11.70;2.00;;;5.70;99.90;;;;;;5001750;28;20091;-86
2023/01/15 08:49:42;;;;;;;9.67;2.37;;;5.70;99.90;;;;;;5021807;28;20123;-87
2023/01/15 08:52:08;;;;;;;7.43;1.93;;;5.70;99.90;;;;;;5020315;28;20572;-85
2023/01/15 08:54:34;;;;;;;6.60;1.93;;;5.80;99.90;;;;;;5019151;28;20037;-87
2023/01/15 08:57:00;;;;;;;9.70;1.90;;;5.90;99.90;;;;;;5018936;28;20393;-85
2023/01/15 08:59:26;;;;;;;10.07;2.47;;;6.00;99.90;;;;;;5034311;28;20045;-88
2023/01/15 09:01:52;;;;;;;10.33;2.00;;;6.10;99.90;;;;;;5035008;28;20135;-88
2023/01/15 09:04:19;;;;;;;12.00;1.90;;;6.10;99.90;;;;;;5029267;28;20097;-86
2023/01/15 09:06:46;;;;;;;9.63;2.37;;;6.10;99.90;;;;;;5035356;28;20048;-89
2023/01/15 09:09:13;;;;;;;10.57;2.23;;;6.10;99.90;;;;;;5023625;28;20029;-89
2023/01/15 09:11:39;;;;;;;8.73;2.10;;;6.00;99.90;;;;;;5035658;28;20480;-86
2023/01/15 09:14:09;;;;;;;9.17;2.13;;;6.00;99.90;;;;;;5034969;28;20063;-89
2023/01/15 09:16:36;;;;;;;14.37;2.00;;;5.90;99.90;;;;;;5019776;28;20079;-88
2023/01/15 09:19:02;;;;;;;4.83;1.80;;;5.90;99.90;;;;;;5019007;28;20078;-87
2023/01/15 09:21:28;;;;;;;11.63;2.30;;;5.80;99.90;;;;;;5018200;28;20041;-87
2023/01/15 09:23:54;;;;;;;9.00;2.07;;;5.70;99.90;;;;;;5021429;28;20171;-88
2023/01/15 09:26:46;;;;;;;6.40;1.80;;;5.50;99.90;;;;;;5018064;28;20037;-86
2023/01/15 09:29:12;;;;;;;4.38;1.30;;;5.40;99.90;;;;;;5015066;28;20373;-86
2023/01/15 09:31:38;;;;;;;7.37;1.77;;;5.20;99.90;;;;;;5022302;28;20044;-86
2023/01/15 09:34:04;;;;;;;7.60;1.90;;;5.10;99.90;;;;;;5026012;28;20045;-87
2023/01/15 09:36:33;;;;;;;4.00;1.03;;;5.00;99.90;;;;;;5026221;28;20071;-87
2023/01/15 09:39:00;;;;;;;3.97;1.00;;;4.90;99.90;;;;;;5038831;28;20033;-87
2023/01/15 09:42:05;;;;;;;4.47;1.30;;;4.90;99.90;;;;;;5037612;28;20053;-89
2023/01/15 09:44:50;;;;;;;5.10;1.57;;;4.90;99.90;;;;;;5008482;28;20061;-83
2023/01/15 09:47:33;;;;;;;3.43;1.23;;;4.90;99.90;;;;;;5026259;28;20071;-84
2023/01/15 09:49:59;;;;;;;6.47;1.10;;;5.00;99.90;;;;;;5037054;28;20051;-87
2023/01/15 09:52:32;;;;;;;4.17;1.20;;;5.10;99.90;;;;;;5033907;28;20112;-87
2023/01/15 09:55:16;;;;;;;4.47;1.20;;;5.20;99.90;;;;;;5028435;28;20520;-84
2023/01/15 09:57:45;;;;;;;8.83;1.73;;;5.30;99.90;;;;;;5034243;28;20382;-86
2023/01/15 10:00:18;;;;;;;6.28;1.52;;;5.40;99.90;;;;;;5032638;28;20128;-84
2023/01/15 10:02:53;;;;;;;10.73;2.17;;;5.50;99.90;;;;;;5048956;28;20095;-87
2023/01/15 10:05:29;;;;;;;8.30;1.60;;;5.50;99.90;;;;;;5029826;28;20044;-86
2023/01/15 10:08:10;;;;;;;5.13;1.60;;;5.60;99.90;;;;;;5035845;28;20144;-85
2023/01/15 10:10:44;;;;;;;9.80;2.60;;;5.60;99.90;;;;;;5056221;28;20128;-88
2023/01/15 10:13:45;;;;;;;6.87;1.70;;;5.60;99.90;;;;;;5033240;28;20064;-85
2023/01/15 10:16:17;;;;;;;7.13;2.17;;;5.60;99.90;;;;;;5006444;28;20067;-83
2023/01/15 10:18:44;;;;;;;5.67;1.80;;;5.50;99.90;;;;;;5033246;28;20044;-85
2023/01/15 10:21:36;;;;;;;7.37;1.60;;;5.40;99.90;;;;;;5036685;28;20081;-85
2023/01/15 10:24:18;;;;;;;5.82;1.70;;;5.50;99.90;;;;;;5036494;28;20412;-87
2023/01/15 10:26:58;;;;;;;9.98;2.40;;;5.50;99.90;;;;;;5020208;28;20032;-85
2023/01/15 10:29:26;;;;;;;10.07;2.20;;;5.60;99.90;;;;;;5019745;28;20037;-87
2023/01/15 10:32:07;;;;;;;9.50;2.00;;;5.60;99.90;;;;;;5037250;28;20119;-84
2023/01/15 10:34:33;;;;;;;8.63;1.77;;;5.70;99.90;;;;;;5028863;28;20065;-87
2023/01/15 10:37:20;;;;;;;8.77;2.03;;;5.80;99.90;;;;;;5036679;28;20071;-87
2023/01/15 10:40:10;;;;;;;8.03;2.13;;;5.80;99.90;;;;;;5047392;28;20047;-86
2023/01/15 10:42:53;;;;;;;10.50;2.10;;;5.70;99.90;;;;;;5028223;28;20052;-85
2023/01/15 10:45:25;;;;;;;8.13;1.87;;;5.60;99.90;;;;;;5058579;28;20120;-85
2023/01/15 10:48:10;;;;;;;9.50;1.93;;;5.50;99.90;;;;;;5044151;28;20041;-85
2023/01/15 10:50:37;;;;;;;5.47;2.10;;;5.40;99.90;;;;;;5037255;28;20039;-85
2023/01/15 10:53:35;;;;;;;8.40;1.83;;;5.30;99.90;;;;;;5027922;28;20048;-85
2023/01/15 10:56:28;;;;;;;9.33;2.20;;;5.30;99.90;;;;;;5011596;28;20131;-86
2023/01/15 10:59:10;;;;;;;6.83;1.90;;;5.30;99.90;;;;;;5047838;28;20733;-88
2023/01/15 11:01:37;;;;;;;11.05;2.30;;;5.40;99.90;;;;;;5042028;28;20490;-87
2023/01/15 11:04:03;;;;;;;8.27;2.20;;;5.40;99.90;;;;;;5026786;28;20098;-86
2023/01/15 11:06:33;;;;;;;11.90;2.07;;;5.30;99.90;;;;;;5046426;28;20446;-86
2023/01/15 11:08:59;;;;;;;9.03;2.13;;;5.30;99.90;;;;;;5037203;28;20029;-86
2023/01/15 11:20:31;;;;;;;9.23;1.93;;;6.00;99.90;;;;;;5049702;28;20040;-85
2023/01/15 11:23:05;;;;;;;9.97;2.03;;;6.00;99.90;;;;;;5025710;28;20102;-86
2023/01/15 11:25:32;;;;;;;10.13;2.37;;;5.90;99.90;;;;;;5038522;28;20291;-85
2023/01/15 11:28:02;;;;;;;13.00;2.63;;;6.10;99.90;;;;;;5054156;28;20420;-87
2023/01/15 11:30:36;;;;;;;11.57;2.67;;;6.20;99.90;;;;;;5042221;28;20361;-86
2023/01/15 11:33:03;;;;;;;7.93;2.10;;;6.30;99.90;;;;;;5025349;28;20079;-86
2023/01/15 11:35:30;;;;;;;11.83;2.40;;;6.40;99.90;;;;;;5038281;28;20052;-86
2023/01/15 11:38:13;;;;;;;7.33;2.10;;;6.50;99.90;;;;;;5022211;28;20079;-87
2023/01/15 11:40:39;;;;;;;7.83;2.37;;;6.60;99.90;;;;;;5039416;28;20078;-85
2023/01/15 11:51:40;;;;;;;7.43;2.17;;;7.00;99.90;;;;;;5033441;28;20505;-85
2023/01/15 11:54:10;;;;;;;8.03;2.07;;;7.10;99.90;;;;;;5026127;28;20040;-85
2023/01/15 11:56:41;;;;;;;14.83;3.33;;;7.00;99.90;;;;;;5027079;28;20071;-87
2023/01/15 11:59:11;;;;;;;9.47;2.10;;;6.90;99.90;;;;;;5023814;28;20049;-86
2023/01/15 12:01:56;;;;;;;10.20;2.10;;;7.00;99.90;;;;;;5038605;28;20111;-84
2023/01/15 12:04:43;;;;;;;12.10;2.47;;;7.00;99.90;;;;;;5036679;28;20044;-84
2023/01/15 12:07:12;;;;;;;8.70;2.07;;;7.00;99.90;;;;;;5035647;28;20036;-84
2023/01/15 12:09:41;;;;;;;12.20;2.37;;;7.10;99.90;;;;;;5024646;28;20036;-85
2023/01/15 12:12:51;;;;;;;10.37;2.27;;;7.00;99.90;;;;;;5059344;28;20063;-86
2023/01/15 12:15:41;;;;;;;8.77;2.30;;;7.00;99.90;;;;;;4973080;28;20148;-85
2023/01/15 12:18:37;;;;;;;8.70;2.20;;;6.90;99.90;;;;;;5032795;28;20049;-85
2023/01/15 12:21:15;;;;;;;9.47;2.60;;;7.00;99.90;;;;;;5027591;28;20032;-85
2023/01/15 12:24:00;;;;;;;10.90;2.13;;;7.10;99.90;;;;;;5031751;28;20113;-81
2023/01/15 12:26:33;;;;;;;10.57;2.10;;;7.20;99.90;;;;;;5034779;28;20048;-83
2023/01/15 12:29:03;;;;;;;;;;;7.10;99.90;;;;;;5030835;28;20040;-82
2023/01/15 12:31:40;;;;;;;7.27;1.80;;;7.10;99.90;;;;;;5036894;28;19939;-85
2023/01/15 12:34:18;;;;;;;8.77;2.23;;;7.10;99.90;;;;;;5037188;28;20037;-84
2023/01/15 12:36:50;;;;;;;10.37;2.43;;;7.10;99.90;;;;;;5020708;28;20520;-84
2023/01/15 12:39:32;;;;;;;11.30;2.17;;;7.10;99.90;;;;;;5061725;28;20530;-84
2023/01/15 12:45:06;;;;;;;9.77;2.50;;;7.10;99.90;;;;;;5031481;28;20540;-85
2023/01/15 12:47:47;;;;;;;8.93;2.30;;;7.10;99.90;;;;;;5026785;28;20112;-85
2023/01/15 12:50:35;;;;;;;9.57;2.33;;;7.20;99.90;;;;;;5021667;28;20737;-84
2023/01/15 12:53:31;;;;;;;8.17;1.87;;;7.30;99.90;;;;;;5026838;28;20486;-84
2023/01/15 12:56:08;;;;;;;10.00;2.07;;;7.40;99.90;;;;;;5029317;28;20103;-83
2023/01/15 12:58:51;;;;;;;12.40;2.87;;;7.40;99.90;;;;;;5028025;28;20059;-84
2023/01/15 13:01:52;;;;;;;10.63;2.30;;;7.40;99.90;;;;;;5039986;28;20040;-85
2023/01/15 13:04:24;;;;;;;10.27;3.00;;;7.40;99.90;;;;;;5025455;28;20090;-86
2023/01/15 13:07:02;;;;;;;10.20;2.20;;;7.40;99.90;;;;;;5039255;28;20939;-84
2023/01/15 13:09:35;;;;;;;6.50;1.90;;;7.40;99.90;;;;;;5032998;28;20040;-83
2023/01/15 13:12:01;;;;;;;9.50;2.17;;;7.40;99.90;;;;;;5033166;28;20138;-86
2023/01/15 13:14:27;;;;;;;7.07;2.03;;;7.40;99.90;;;;;;5034116;28;20050;-84
2023/01/15 13:17:01;;;;;;;13.27;2.10;;;7.30;99.90;;;;;;5022580;28;20039;-86
2023/01/15 13:19:34;;;;;;;7.17;2.27;;;7.30;99.90;;;;;;5029346;28;21325;-83
2023/01/15 13:22:14;;;;;;;7.00;2.10;;;7.30;99.90;;;;;;5038946;28;20048;-86
2023/01/15 13:25:26;;;;;;;5.30;1.80;;;7.30;99.90;;;;;;5027244;28;20036;-85
2023/01/15 13:28:21;;;;;;;9.38;1.98;;;7.20;99.90;;;;;;5005009;28;20033;-83
2023/01/15 13:31:29;;;;;;;8.47;2.17;;;7.20;99.90;;;;;;5034784;28;20109;-87
2023/01/15 13:33:57;;;;;;;14.00;2.27;;;7.20;99.90;;;;;;5020494;28;20220;-85
2023/01/15 13:36:29;;;;;;;9.53;2.17;;;7.30;99.90;;;;;;5043043;28;20119;-85
2023/01/15 13:38:59;;;;;;;10.43;1.90;;;7.30;99.90;;;;;;5054746;28;20049;-87
2023/01/15 13:44:25;;;;;;;9.73;2.30;;;7.30;99.90;;;;;;5037940;28;20052;-84
2023/01/15 13:47:07;;;;;;;13.10;2.67;;;7.20;99.90;;;;;;5031287;28;20044;-84
2023/01/15 13:49:40;;;;;;;7.50;1.92;;;7.20;99.90;;;;;;5043804;28;20041;-84
2023/01/15 13:52:16;;;;;;;8.20;2.13;;;7.10;99.90;;;;;;5024106;28;20046;-84
2023/01/15 13:54:42;;;;;;;8.10;2.20;;;7.00;99.90;;;;;;5040306;28;20040;-86
2023/01/15 13:57:20;;;;;;;10.53;2.40;;;7.00;99.90;;;;;;5045624;28;20043;-85
2023/01/15 13:59:46;;;;;;;13.03;2.83;;;6.90;99.90;;;;;;5040789;28;20505;-84
2023/01/15 14:02:31;;;;;;;9.97;2.13;;;6.80;99.90;;;;;;5042819;28;20136;-83